ETHF/FRZ METAR and TAF weather

Enter ICAO airport designator
Station Type Date Time Source
ETHF METAR 2020/04/06 08:20 UTC NOAA

ETHF 060820Z 12005KT 9999 11/01 Q1022 BLU+BLU+


Station Type Date Time Source
ETHF Decoded METAR 2020/04/06 08:20 UTC NOAA

Fritzlar, Germany (ETHF) 51-07N 009-17E 181M
Apr 06, 2020 - 04:20 AM EDT / 2020.04.06 0820 UTC
Wind: from the ESE (120 degrees) at 6 MPH (5 KT):0
Visibility: greater than 7 mile(s):0
Temperature: 51 F (11 C)
Dew Point: 33 F (1 C)
Relative Humidity: 50%
Pressure (altimeter): 30.18 in. Hg (1022 hPa)
ob: ETHF 060820Z 12005KT 9999 11/01 Q1022 BLU+BLU+
cycle: 8

Station Type Date Time Source
ETHF TAF 2020/02/03 18:30 UTC NOAA

TAF ETHF 031723Z 0318/0413 23006KT 9999 NSW BKN030
TEMPO 0318/0403 25005KT 5000 RA FEW010 BKN020

Example: see airport list